Time;durP1;ratioP1;P1;durP2;ratioP2;P2;SDS_P1;SDS_P2;PMS_P1;PMS_P2;Temp;Humidity;BMP_temperature;BMP_pressure;BME280_temperature;BME280_humidity;BME280_pressure;Samples;Min_cycle;Max_cycle;Signal;HPM_P1;HPM_P2
2022/12/15 00:40:05;;;;;;;52.40;22.05;;;;;;;;;;4977835;28;20048;-56
2022/12/15 00:42:31;;;;;;;45.72;21.15;;;;;;;;;;4973563;28;20022;-55
2022/12/15 00:44:56;;;;;;;43.25;19.60;;;;;;;;;;4977032;28;20034;-56
2022/12/15 00:47:21;;;;;;;41.75;18.20;;;;;;;;;;4976617;28;20023;-55
2022/12/15 01:22:38;;;;;;;37.92;15.57;;;;;;;;;;4983838;28;20590;-52
2022/12/15 01:25:04;;;;;;;37.85;16.23;;;;;;;;;;4974324;28;20086;-53
2022/12/15 01:27:29;;;;;;;39.65;15.90;;;;;;;;;;4974831;28;20377;-53
2022/12/15 01:29:55;;;;;;;36.10;17.05;;;;;;;;;;4972930;28;20635;-55
2022/12/15 01:32:20;;;;;;;33.90;15.30;;;;;;;;;;4979139;28;20030;-53
2022/12/15 01:34:45;;;;;;;37.15;16.17;;;;;;;;;;4976923;28;20303;-55
2022/12/15 01:37:10;;;;;;;33.22;16.08;;;;;;;;;;4976962;28;20035;-53
2022/12/15 01:42:19;;;;;;;39.70;16.90;;;;;;;;;;4981033;28;20033;-53
2022/12/15 01:44:45;;;;;;;34.53;15.15;;;;;;;;;;4974752;28;20026;-53
2022/12/15 01:47:11;;;;;;;33.60;15.88;;;;;;;;;;4958051;28;20525;-54
2022/12/15 01:49:36;;;;;;;48.03;18.85;;;;;;;;;;4966354;28;20018;-56
2022/12/15 01:52:02;;;;;;;41.45;18.17;;;;;;;;;;4963144;28;20468;-55
2022/12/15 01:54:27;;;;;;;42.35;18.45;;;;;;;;;;4980617;28;21181;-53
2022/12/15 01:56:54;;;;;;;40.15;18.27;;;;;;;;;;4977019;28;20042;-54
2022/12/15 01:59:20;;;;;;;52.78;22.02;;;;;;;;;;4978768;28;20041;-53
2022/12/15 02:01:45;;;;;;;46.78;17.65;;;;;;;;;;4947932;28;20072;-55
2022/12/15 02:04:10;;;;;;;41.17;18.75;;;;;;;;;;4976104;28;20270;-54
2022/12/15 02:06:35;;;;;;;41.03;18.52;;;;;;;;;;4960437;28;20026;-56
2022/12/15 02:09:01;;;;;;;35.75;15.90;;;;;;;;;;4963048;28;20022;-53
2022/12/15 02:11:26;;;;;;;37.47;17.63;;;;;;;;;;4961604;28;20113;-53
2022/12/15 02:13:59;;;;;;;39.72;18.13;;;;;;;;;;4972193;28;20422;-55
2022/12/15 02:16:38;;;;;;;41.63;17.67;;;;;;;;;;4969398;28;20088;-54
2022/12/15 02:19:07;;;;;;;43.40;18.73;;;;;;;;;;4975871;28;20027;-55
2022/12/15 02:21:37;;;;;;;40.00;18.00;;;;;;;;;;4972815;28;20276;-56
2022/12/15 02:24:02;;;;;;;45.88;19.05;;;;;;;;;;4969965;28;20361;-55
2022/12/15 02:26:36;;;;;;;45.22;18.33;;;;;;;;;;4932186;28;20054;-55
2022/12/15 02:29:02;;;;;;;44.03;19.65;;;;;;;;;;4942009;28;20024;-55
2022/12/15 02:34:33;;;;;;;54.08;20.55;;;;;;;;;;4946768;28;20041;-54
2022/12/15 02:37:08;;;;;;;72.03;24.23;;;;;;;;;;4935707;28;20074;-55
2022/12/15 02:39:34;;;;;;;72.53;25.00;;;;;;;;;;4934690;28;20027;-56
2022/12/15 02:41:59;;;;;;;67.68;24.98;;;;;;;;;;4943185;28;20038;-57
2022/12/15 02:44:42;;;;;;;88.97;25.23;;;;;;;;;;4937459;28;20024;-56
2022/12/15 02:47:11;;;;;;;84.35;27.52;;;;;;;;;;4942815;28;20089;-55
2022/12/15 02:49:42;;;;;;;80.07;25.20;;;;;;;;;;4938656;28;20477;-56
2022/12/15 02:52:19;;;;;;;69.75;23.20;;;;;;;;;;4937655;28;20038;-53
2022/12/15 02:55:03;;;;;;;81.93;24.63;;;;;;;;;;4937865;28;20094;-54
2022/12/15 02:57:37;;;;;;;60.08;22.98;;;;;;;;;;4941599;28;20033;-55
2022/12/15 03:00:04;;;;;;;64.30;24.70;;;;;;;;;;4944846;28;20031;-55
2022/12/15 03:02:30;;;;;;;73.70;24.58;;;;;;;;;;4941590;28;20643;-56
2022/12/15 03:04:55;;;;;;;65.75;21.13;;;;;;;;;;4956497;28;20497;-56
2022/12/15 03:07:21;;;;;;;66.30;21.10;;;;;;;;;;4945458;28;20019;-56
2022/12/15 03:09:46;;;;;;;53.35;22.10;;;;;;;;;;4954629;28;20415;-53
2022/12/15 03:12:11;;;;;;;52.08;22.10;;;;;;;;;;4945262;28;20015;-54
2022/12/15 03:14:37;;;;;;;54.60;22.67;;;;;;;;;;4943210;28;20035;-55
2022/12/15 03:17:05;;;;;;;63.95;22.95;;;;;;;;;;4945064;28;20031;-55
2022/12/15 03:19:31;;;;;;;53.45;19.13;;;;;;;;;;4946282;28;20030;-55
2022/12/15 03:21:56;;;;;;;58.17;23.02;;;;;;;;;;4937857;28;20047;-56
2022/12/15 03:24:21;;;;;;;63.47;23.85;;;;;;;;;;4960543;28;20043;-56
2022/12/15 03:26:48;;;;;;;81.85;27.48;;;;;;;;;;4970809;28;20465;-56
2022/12/15 03:29:14;;;;;;;63.45;22.33;;;;;;;;;;4971985;28;20110;-55
2022/12/15 03:31:39;;;;;;;53.60;21.00;;;;;;;;;;4975824;28;20050;-54
2022/12/15 03:34:05;;;;;;;52.63;21.08;;;;;;;;;;4982463;28;20038;-55
2022/12/15 03:36:30;;;;;;;53.75;21.23;;;;;;;;;;4978368;28;20065;-56
2022/12/15 03:38:55;;;;;;;79.75;25.02;;;;;;;;;;4976210;28;20026;-54
2022/12/15 03:41:20;;;;;;;64.05;20.75;;;;;;;;;;4980850;28;20064;-55
2022/12/15 03:43:45;;;;;;;66.85;21.13;;;;;;;;;;4972911;28;20033;-55
2022/12/15 03:46:11;;;;;;;67.13;21.15;;;;;;;;;;4979457;28;20026;-55
2022/12/15 03:48:36;;;;;;;64.25;22.98;;;;;;;;;;4970587;28;20018;-52
2022/12/15 03:51:01;;;;;;;62.22;21.63;;;;;;;;;;4980951;28;20023;-55
2022/12/15 03:53:26;;;;;;;55.53;19.25;;;;;;;;;;4974764;28;20037;-54
2022/12/15 03:55:52;;;;;;;50.22;19.55;;;;;;;;;;4973949;28;20140;-56
2022/12/15 03:58:17;;;;;;;44.22;18.63;;;;;;;;;;4981176;28;20030;-55
2022/12/15 04:00:42;;;;;;;45.70;17.92;;;;;;;;;;4976663;28;20045;-55
2022/12/15 04:03:08;;;;;;;42.42;17.33;;;;;;;;;;4982901;28;20290;-54
2022/12/15 04:05:33;;;;;;;52.33;20.00;;;;;;;;;;4977070;28;20030;-54
2022/12/15 04:07:59;;;;;;;76.38;21.45;;;;;;;;;;4976681;28;20357;-53
2022/12/15 04:10:25;;;;;;;57.53;20.52;;;;;;;;;;4973232;28;20101;-53
2022/12/15 04:12:57;;;;;;;59.78;21.42;;;;;;;;;;4972590;28;20907;-56
2022/12/15 04:15:22;;;;;;;60.47;19.98;;;;;;;;;;4982391;28;20497;-55
2022/12/15 04:17:47;;;;;;;61.30;22.10;;;;;;;;;;4978869;28;20160;-53
2022/12/15 04:20:13;;;;;;;62.00;20.98;;;;;;;;;;4978774;28;20042;-54
2022/12/15 04:22:41;;;;;;;75.75;21.30;;;;;;;;;;4977079;28;20093;-53
2022/12/15 05:33:26;;;;;;;86.93;26.55;;;;;;;;;;4979518;28;20439;-55
2022/12/15 05:35:54;;;;;;;94.72;26.65;;;;;;;;;;4976463;28;20119;-53
2022/12/15 05:38:19;;;;;;;79.15;23.33;;;;;;;;;;4974843;28;20097;-55
2022/12/15 05:40:45;;;;;;;88.55;24.08;;;;;;;;;;4980091;28;20422;-55
2022/12/15 05:43:10;;;;;;;74.10;23.20;;;;;;;;;;4979698;28;20030;-54
2022/12/15 05:45:35;;;;;;;93.38;27.35;;;;;;;;;;4975802;28;20061;-54
2022/12/15 05:48:00;;;;;;;92.40;26.80;;;;;;;;;;4981391;28;20019;-55
2022/12/15 05:50:26;;;;;;;80.32;24.30;;;;;;;;;;4975434;28;20029;-55
2022/12/15 05:52:51;;;;;;;77.22;22.75;;;;;;;;;;4977694;28;20142;-54
2022/12/15 05:55:17;;;;;;;83.03;23.52;;;;;;;;;;4976341;28;20428;-52
2022/12/15 05:57:42;;;;;;;74.38;23.27;;;;;;;;;;4970873;28;20046;-55
2022/12/15 06:00:08;;;;;;;93.38;26.67;;;;;;;;;;4974208;28;20140;-56
2022/12/15 06:02:33;;;;;;;75.13;23.63;;;;;;;;;;4973116;28;20411;-55
2022/12/15 06:04:58;;;;;;;81.90;24.88;;;;;;;;;;4976910;28;20022;-55
2022/12/15 06:07:23;;;;;;;105.15;25.35;;;;;;;;;;4973806;28;20026;-54
2022/12/15 06:09:48;;;;;;;102.00;28.40;;;;;;;;;;4974760;28;20085;-55
2022/12/15 06:12:14;;;;;;;88.40;27.05;;;;;;;;;;4957902;28;20044;-54
2022/12/15 06:14:39;;;;;;;98.85;24.83;;;;;;;;;;4979205;28;20078;-54
2022/12/15 06:17:04;;;;;;;96.95;26.88;;;;;;;;;;4962173;28;20035;-56
2022/12/15 06:19:29;;;;;;;91.53;24.92;;;;;;;;;;4978131;28;20488;-56
2022/12/15 06:21:55;;;;;;;94.60;24.83;;;;;;;;;;4974805;28;20527;-54
2022/12/15 06:24:20;;;;;;;112.40;27.88;;;;;;;;;;4976848;28;20404;-54
2022/12/15 06:26:45;;;;;;;91.25;25.50;;;;;;;;;;4978987;28;20323;-55
2022/12/15 06:29:10;;;;;;;93.22;29.55;;;;;;;;;;4972728;28;20033;-54
2022/12/15 06:31:36;;;;;;;97.57;26.63;;;;;;;;;;4957540;28;20085;-53
2022/12/15 06:34:02;;;;;;;103.40;28.45;;;;;;;;;;4980680;28;20035;-54
2022/12/15 06:36:27;;;;;;;109.93;27.98;;;;;;;;;;4980035;28;20891;-52
2022/12/15 06:38:52;;;;;;;123.78;33.92;;;;;;;;;;4982271;28;20136;-55
2022/12/15 06:41:18;;;;;;;107.80;33.28;;;;;;;;;;4978232;28;20042;-53
2022/12/15 06:43:51;;;;;;;103.65;28.83;;;;;;;;;;4975842;28;20114;-54
2022/12/15 06:46:16;;;;;;;98.22;27.67;;;;;;;;;;4979054;28;20019;-52
2022/12/15 06:48:43;;;;;;;109.32;27.77;;;;;;;;;;4970268;28;20023;-55
2022/12/15 06:51:09;;;;;;;109.82;29.50;;;;;;;;;;4982210;28;20030;-53
2022/12/15 06:53:35;;;;;;;120.30;32.85;;;;;;;;;;4976584;28;20089;-54
2022/12/15 06:56:01;;;;;;;84.72;26.73;;;;;;;;;;4975010;28;20026;-52
2022/12/15 06:58:26;;;;;;;90.22;25.77;;;;;;;;;;4976216;28;20102;-54
2022/12/15 07:00:51;;;;;;;99.68;24.60;;;;;;;;;;4969503;28;20114;-53
2022/12/15 07:03:17;;;;;;;88.00;23.30;;;;;;;;;;4979312;28;20404;-54
2022/12/15 07:05:42;;;;;;;104.78;26.02;;;;;;;;;;4972151;28;20779;-55
2022/12/15 07:08:09;;;;;;;112.43;27.25;;;;;;;;;;4975613;28;20038;-55
2022/12/15 07:10:36;;;;;;;92.35;25.48;;;;;;;;;;4955883;28;20071;-54
2022/12/15 07:13:02;;;;;;;93.50;25.85;;;;;;;;;;4980368;28;20026;-55
2022/12/15 07:15:27;;;;;;;86.28;25.42;;;;;;;;;;4974590;28;20030;-55
2022/12/15 07:17:53;;;;;;;89.15;23.92;;;;;;;;;;4970011;28;20034;-54
2022/12/15 07:20:18;;;;;;;91.78;26.23;;;;;;;;;;4977098;28;20030;-55
2022/12/15 07:22:43;;;;;;;85.32;24.98;;;;;;;;;;4973910;28;20115;-56
2022/12/15 07:25:09;;;;;;;90.00;24.42;;;;;;;;;;4967561;28;20144;-55
2022/12/15 07:27:34;;;;;;;107.45;25.63;;;;;;;;;;4972015;28;20102;-55
2022/12/15 07:29:59;;;;;;;94.20;24.98;;;;;;;;;;4972884;28;20093;-54
2022/12/15 07:32:24;;;;;;;108.85;25.63;;;;;;;;;;4969623;28;20124;-54
2022/12/15 07:34:49;;;;;;;85.68;27.00;;;;;;;;;;4978554;28;20132;-53
2022/12/15 07:37:15;;;;;;;93.85;31.40;;;;;;;;;;4979179;28;20034;-55
2022/12/15 07:39:40;;;;;;;90.57;28.73;;;;;;;;;;4978528;28;20046;-56
2022/12/15 07:42:05;;;;;;;84.10;26.00;;;;;;;;;;4960689;28;20045;-54
2022/12/15 07:44:31;;;;;;;95.05;26.52;;;;;;;;;;4982332;28;20030;-56
2022/12/15 07:46:56;;;;;;;91.43;26.00;;;;;;;;;;4974103;28;20038;-55
2022/12/15 07:49:21;;;;;;;76.78;24.60;;;;;;;;;;4972795;28;20034;-55
2022/12/15 07:51:46;;;;;;;87.43;24.48;;;;;;;;;;4976347;28;20031;-55
2022/12/15 07:54:12;;;;;;;83.68;25.35;;;;;;;;;;4980781;28;20538;-57
2022/12/15 07:56:37;;;;;;;70.65;22.77;;;;;;;;;;4981564;28;20031;-55
2022/12/15 07:59:03;;;;;;;96.82;28.73;;;;;;;;;;4976001;28;20109;-54
2022/12/15 08:01:28;;;;;;;93.05;28.17;;;;;;;;;;4982577;28;20073;-53
2022/12/15 08:03:53;;;;;;;99.85;28.08;;;;;;;;;;4979707;28;20033;-54
2022/12/15 08:06:19;;;;;;;87.72;24.40;;;;;;;;;;4979572;28;20451;-53
2022/12/15 08:08:44;;;;;;;89.35;26.33;;;;;;;;;;4981525;28;20053;-57
2022/12/15 08:11:10;;;;;;;78.18;25.38;;;;;;;;;;4979014;28;20030;-54
2022/12/15 08:13:35;;;;;;;76.38;24.88;;;;;;;;;;4965035;28;20022;-56
2022/12/15 08:16:01;;;;;;;91.50;25.45;;;;;;;;;;4974729;28;20086;-54
2022/12/15 08:18:26;;;;;;;78.47;25.15;;;;;;;;;;4971974;28;20037;-53
2022/12/15 08:20:51;;;;;;;85.38;27.38;;;;;;;;;;4974268;28;20025;-54
2022/12/15 08:23:16;;;;;;;80.10;23.88;;;;;;;;;;4976779;28;20030;-54
2022/12/15 08:25:42;;;;;;;79.72;26.85;;;;;;;;;;4973553;28;20023;-54
2022/12/15 08:28:07;;;;;;;87.85;29.23;;;;;;;;;;4976203;28;20611;-55
2022/12/15 08:30:33;;;;;;;90.70;27.38;;;;;;;;;;4972038;28;20076;-54
2022/12/15 08:32:59;;;;;;;93.45;26.13;;;;;;;;;;4976364;28;20388;-54
2022/12/15 08:35:24;;;;;;;112.93;35.78;;;;;;;;;;4978857;28;20018;-55
2022/12/15 08:37:49;;;;;;;96.70;28.08;;;;;;;;;;4973357;28;20848;-55
2022/12/15 08:40:15;;;;;;;86.32;27.73;;;;;;;;;;4971747;28;20080;-55
2022/12/15 08:42:40;;;;;;;91.25;25.95;;;;;;;;;;4974017;28;20589;-59
2022/12/15 08:45:06;;;;;;;97.47;26.65;;;;;;;;;;4975318;28;20030;-56
2022/12/15 08:47:31;;;;;;;102.15;30.38;;;;;;;;;;4976326;28;20022;-56
2022/12/15 08:49:56;;;;;;;90.70;25.70;;;;;;;;;;4977931;28;20042;-52
2022/12/15 08:52:23;;;;;;;95.15;24.55;;;;;;;;;;4976691;28;20026;-55
2022/12/15 08:54:48;;;;;;;78.13;24.77;;;;;;;;;;4962948;28;20088;-56
2022/12/15 08:57:14;;;;;;;84.82;24.30;;;;;;;;;;4980057;28;20030;-56
2022/12/15 08:59:39;;;;;;;80.00;24.27;;;;;;;;;;4972460;28;20027;-55
2022/12/15 09:02:04;;;;;;;88.95;25.55;;;;;;;;;;4972906;28;20038;-56
2022/12/15 09:04:29;;;;;;;86.50;26.33;;;;;;;;;;4960478;28;20053;-55
2022/12/15 09:06:55;;;;;;;87.53;25.95;;;;;;;;;;4970848;28;20033;-55
2022/12/15 09:09:20;;;;;;;89.95;27.70;;;;;;;;;;4971945;28;20125;-54
2022/12/15 09:11:45;;;;;;;91.13;27.45;;;;;;;;;;4972735;28;20128;-55
2022/12/15 09:14:10;;;;;;;88.53;25.25;;;;;;;;;;4974220;28;20022;-55
2022/12/15 09:16:36;;;;;;;95.35;24.92;;;;;;;;;;4976432;28;20112;-56
2022/12/15 09:19:01;;;;;;;80.68;24.02;;;;;;;;;;4973779;28;20033;-56
2022/12/15 09:21:27;;;;;;;82.00;26.77;;;;;;;;;;4968562;28;20141;-55
2022/12/15 09:23:53;;;;;;;80.35;24.83;;;;;;;;;;4981969;28;20042;-55
2022/12/15 09:26:19;;;;;;;87.03;25.08;;;;;;;;;;4976784;28;20030;-54
2022/12/15 09:28:45;;;;;;;95.32;26.48;;;;;;;;;;4977154;28;20543;-56
2022/12/15 09:31:13;;;;;;;89.18;27.10;;;;;;;;;;4974112;28;20041;-54
2022/12/15 09:33:38;;;;;;;90.03;28.88;;;;;;;;;;4979183;28;20106;-54
2022/12/15 09:36:04;;;;;;;79.13;23.20;;;;;;;;;;4976099;28;20592;-53
2022/12/15 09:38:30;;;;;;;82.97;24.73;;;;;;;;;;4974694;28;20019;-54
2022/12/15 09:40:55;;;;;;;71.88;23.77;;;;;;;;;;4973324;28;20081;-51
2022/12/15 09:43:23;;;;;;;83.82;25.50;;;;;;;;;;4977196;28;20300;-52
2022/12/15 09:46:04;;;;;;;90.07;25.73;;;;;;;;;;4974957;28;20112;-56
2022/12/15 09:48:33;;;;;;;76.53;24.98;;;;;;;;;;4948913;28;20019;-56
2022/12/15 09:50:58;;;;;;;77.63;25.83;;;;;;;;;;4956014;28;20029;-55
2022/12/15 09:53:23;;;;;;;88.65;25.75;;;;;;;;;;4979305;28;20030;-55
2022/12/15 09:55:51;;;;;;;96.47;27.75;;;;;;;;;;4976291;28;20723;-55
2022/12/15 09:58:16;;;;;;;79.70;26.00;;;;;;;;;;4970706;28;20022;-53
2022/12/15 10:00:54;;;;;;;81.55;25.60;;;;;;;;;;4975649;28;20476;-54
2022/12/15 10:03:34;;;;;;;88.43;27.10;;;;;;;;;;4965377;28;20500;-55
2022/12/15 10:06:06;;;;;;;89.22;26.10;;;;;;;;;;4975921;28;20026;-54
2022/12/15 10:08:32;;;;;;;81.07;26.75;;;;;;;;;;4975741;28;20528;-55
2022/12/15 10:10:58;;;;;;;83.53;26.50;;;;;;;;;;4979624;28;20038;-55
2022/12/15 10:13:23;;;;;;;114.25;36.13;;;;;;;;;;4977829;28;20751;-54
2022/12/15 10:16:07;;;;;;;98.30;28.65;;;;;;;;;;4976741;28;20033;-55
2022/12/15 10:18:40;;;;;;;99.05;28.60;;;;;;;;;;4971483;28;20528;-55
2022/12/15 10:21:06;;;;;;;101.90;28.10;;;;;;;;;;4945421;28;20077;-55
2022/12/15 10:23:31;;;;;;;106.28;29.80;;;;;;;;;;4955318;28;20101;-56
2022/12/15 10:26:15;;;;;;;92.95;28.00;;;;;;;;;;4940830;28;20038;-56
2022/12/15 10:28:40;;;;;;;93.20;28.27;;;;;;;;;;4940473;28;20054;-53
2022/12/15 10:31:08;;;;;;;85.57;26.38;;;;;;;;;;4945024;28;20034;-53
2022/12/15 10:33:34;;;;;;;81.80;26.83;;;;;;;;;;4933111;28;20082;-53
2022/12/15 10:35:59;;;;;;;91.35;26.30;;;;;;;;;;4947287;28;20104;-54
2022/12/15 10:38:31;;;;;;;87.68;28.50;;;;;;;;;;4943711;28;20441;-55
2022/12/15 10:41:03;;;;;;;78.90;25.13;;;;;;;;;;4938229;28;20072;-52
2022/12/15 10:43:30;;;;;;;78.43;24.33;;;;;;;;;;4949220;28;20049;-51
2022/12/15 10:45:59;;;;;;;99.22;28.60;;;;;;;;;;4943222;28;20078;-55
2022/12/15 10:48:24;;;;;;;90.40;26.77;;;;;;;;;;4931892;28;20114;-52
2022/12/15 10:50:49;;;;;;;95.70;29.42;;;;;;;;;;4951762;28;20042;-55
2022/12/15 10:53:38;;;;;;;85.68;25.08;;;;;;;;;;4947804;28;20115;-55
2022/12/15 10:56:05;;;;;;;91.57;28.98;;;;;;;;;;4941954;28;20119;-55
2022/12/15 10:58:30;;;;;;;92.40;28.20;;;;;;;;;;4934392;28;20038;-55
2022/12/15 11:01:05;;;;;;;90.70;28.90;;;;;;;;;;4955614;28;20040;-52
2022/12/15 11:03:34;;;;;;;89.55;26.38;;;;;;;;;;4936854;28;20047;-55
2022/12/15 11:06:00;;;;;;;84.80;24.65;;;;;;;;;;4947156;28;20386;-54
2022/12/15 11:08:25;;;;;;;93.25;27.70;;;;;;;;;;4944001;28;20042;-54
2022/12/15 11:13:38;;;;;;;121.30;37.25;;;;;;;;;;4948915;28;20081;-52
2022/12/15 11:16:12;;;;;;;94.60;29.65;;;;;;;;;;4944852;28;20059;-54
2022/12/15 11:18:39;;;;;;;83.90;26.55;;;;;;;;;;4937728;28;20066;-54
2022/12/15 11:21:05;;;;;;;82.43;22.88;;;;;;;;;;4948989;28;20040;-52
2022/12/15 11:23:42;;;;;;;77.97;24.80;;;;;;;;;;4954080;28;20037;-52
2022/12/15 11:26:29;;;;;;;83.32;26.75;;;;;;;;;;4984034;28;20035;-55
2022/12/15 11:29:17;;;;;;;87.85;25.42;;;;;;;;;;4970697;28;20448;-55
2022/12/15 11:31:42;;;;;;;71.80;24.73;;;;;;;;;;4981194;28;20054;-52
2022/12/15 11:34:16;;;;;;;79.63;26.80;;;;;;;;;;4980876;28;20504;-54
2022/12/15 11:36:56;;;;;;;78.57;26.08;;;;;;;;;;4975230;28;20027;-55
2022/12/15 11:39:30;;;;;;;75.60;25.40;;;;;;;;;;4975809;28;20022;-55
2022/12/15 11:42:05;;;;;;;83.78;26.60;;;;;;;;;;4980303;28;20030;-53
2022/12/15 11:44:37;;;;;;;74.05;24.60;;;;;;;;;;4980281;28;20121;-54
2022/12/15 11:47:25;;;;;;;71.63;24.83;;;;;;;;;;4964570;28;20026;-53
2022/12/15 11:50:05;;;;;;;83.50;28.23;;;;;;;;;;4959079;28;20165;-56
2022/12/15 11:52:39;;;;;;;72.43;25.00;;;;;;;;;;4977772;28;20134;-53
2022/12/15 11:55:07;;;;;;;77.13;24.33;;;;;;;;;;4947688;28;20361;-55
2022/12/15 11:58:01;;;;;;;89.47;27.80;;;;;;;;;;4966071;28;20026;-54
2022/12/15 12:00:27;;;;;;;75.53;26.88;;;;;;;;;;4891586;28;20049;-54
2022/12/15 12:02:52;;;;;;;87.65;27.92;;;;;;;;;;4968950;28;20018;-54
2022/12/15 12:05:20;;;;;;;80.80;26.23;;;;;;;;;;4977697;28;20058;-54
2022/12/15 12:07:47;;;;;;;83.10;26.17;;;;;;;;;;4975348;28;20037;-54
2022/12/15 12:10:15;;;;;;;92.32;28.40;;;;;;;;;;4958559;28;20030;-54
2022/12/15 12:12:55;;;;;;;78.60;27.08;;;;;;;;;;4981805;28;20018;-55
2022/12/15 12:15:40;;;;;;;88.65;28.55;;;;;;;;;;4984661;28;20034;-57
2022/12/15 12:18:34;;;;;;;82.82;26.50;;;;;;;;;;4971287;28;20031;-55
2022/12/15 12:21:10;;;;;;;79.25;26.90;;;;;;;;;;4964082;28;20051;-55
2022/12/15 12:23:36;;;;;;;90.03;26.48;;;;;;;;;;4967452;28;20042;-54
2022/12/15 12:26:10;;;;;;;91.72;27.60;;;;;;;;;;4985106;28;20033;-52
2022/12/15 12:28:38;;;;;;;88.55;27.40;;;;;;;;;;4974272;28;20069;-52
2022/12/15 12:31:04;;;;;;;88.90;29.92;;;;;;;;;;4964498;28;20117;-55
2022/12/15 12:33:31;;;;;;;81.60;28.38;;;;;;;;;;4959344;28;20105;-52
2022/12/15 12:35:58;;;;;;;82.80;26.85;;;;;;;;;;4981279;28;20477;-54
2022/12/15 12:38:25;;;;;;;76.28;26.13;;;;;;;;;;4977873;28;20373;-52
2022/12/15 12:41:11;;;;;;;74.57;25.20;;;;;;;;;;4971414;28;20571;-55
2022/12/15 12:43:39;;;;;;;75.57;25.63;;;;;;;;;;4939966;28;20065;-54
2022/12/15 12:46:15;;;;;;;66.57;23.83;;;;;;;;;;4980930;28;20026;-54
2022/12/15 12:48:42;;;;;;;71.90;26.15;;;;;;;;;;4958382;28;20082;-54
2022/12/15 12:51:16;;;;;;;76.72;27.02;;;;;;;;;;4973738;28;20113;-55
2022/12/15 12:53:41;;;;;;;74.72;25.35;;;;;;;;;;4975408;28;20141;-53
2022/12/15 12:56:14;;;;;;;83.18;26.83;;;;;;;;;;4980557;28;20493;-53
2022/12/15 12:58:44;;;;;;;80.22;26.80;;;;;;;;;;4957595;28;20195;-55
2022/12/15 13:01:09;;;;;;;79.35;27.30;;;;;;;;;;4972062;28;20043;-55
2022/12/15 13:03:37;;;;;;;75.53;26.20;;;;;;;;;;4975419;28;20370;-55
2022/12/15 13:06:03;;;;;;;73.78;25.45;;;;;;;;;;4976419;28;20093;-52
2022/12/15 13:08:44;;;;;;;68.95;26.17;;;;;;;;;;4967970;28;20031;-55
2022/12/15 13:11:28;;;;;;;70.97;26.95;;;;;;;;;;4958999;28;20045;-54
2022/12/15 13:13:53;;;;;;;61.08;25.95;;;;;;;;;;4975756;28;20189;-56
2022/12/15 13:16:25;;;;;;;60.33;23.42;;;;;;;;;;4979542;28;20045;-55
2022/12/15 13:18:57;;;;;;;71.82;28.67;;;;;;;;;;4976194;28;20030;-54
2022/12/15 13:21:43;;;;;;;65.88;24.80;;;;;;;;;;4980585;28;20599;-54
2022/12/15 13:24:26;;;;;;;57.92;23.83;;;;;;;;;;4971095;28;20062;-55
2022/12/15 13:26:52;;;;;;;63.53;25.27;;;;;;;;;;4977120;28;20023;-56
2022/12/15 13:29:17;;;;;;;53.38;20.63;;;;;;;;;;4958929;28;20093;-54
2022/12/15 13:31:45;;;;;;;58.25;22.90;;;;;;;;;;4977116;28;20042;-55
2022/12/15 13:34:14;;;;;;;52.67;22.83;;;;;;;;;;4975618;28;20049;-56
2022/12/15 13:36:39;;;;;;;61.40;24.30;;;;;;;;;;4975878;28;20058;-56
2022/12/15 13:39:14;;;;;;;57.50;21.17;;;;;;;;;;4970063;28;20070;-55
2022/12/15 13:41:43;;;;;;;68.53;25.98;;;;;;;;;;4977629;28;20449;-53
2022/12/15 13:44:28;;;;;;;55.97;23.95;;;;;;;;;;4975375;28;20345;-53
2022/12/15 13:46:54;;;;;;;57.90;21.30;;;;;;;;;;4976326;28;20370;-53
2022/12/15 13:49:30;;;;;;;54.28;24.98;;;;;;;;;;4973560;28;20037;-56
2022/12/15 13:51:57;;;;;;;52.67;22.50;;;;;;;;;;4958905;28;20038;-56
2022/12/15 13:54:23;;;;;;;54.10;21.30;;;;;;;;;;4964474;28;20084;-53
2022/12/15 13:56:49;;;;;;;61.90;22.77;;;;;;;;;;4974238;28;20114;-55
2022/12/15 13:59:24;;;;;;;58.85;20.95;;;;;;;;;;4978146;28;20165;-53
2022/12/15 14:01:49;;;;;;;55.83;21.92;;;;;;;;;;4974504;28;20469;-54
2022/12/15 14:04:15;;;;;;;52.55;21.38;;;;;;;;;;4977081;28;20072;-55
2022/12/15 14:06:48;;;;;;;59.92;22.35;;;;;;;;;;4976512;28;20121;-54
2022/12/15 14:09:13;;;;;;;47.75;21.05;;;;;;;;;;4976125;28;20057;-55
2022/12/15 14:11:40;;;;;;;53.22;21.85;;;;;;;;;;4960246;28;20487;-57
2022/12/15 14:14:05;;;;;;;41.33;17.92;;;;;;;;;;4964834;28;20413;-55
2022/12/15 14:16:31;;;;;;;56.08;22.95;;;;;;;;;;4972191;28;20029;-56
2022/12/15 14:19:13;;;;;;;54.65;21.42;;;;;;;;;;4961623;28;20082;-54
2022/12/15 14:21:39;;;;;;;58.88;22.63;;;;;;;;;;4980287;28;20051;-56
2022/12/15 14:24:23;;;;;;;54.67;22.35;;;;;;;;;;4981404;28;20058;-53
2022/12/15 14:26:48;;;;;;;61.10;24.70;;;;;;;;;;4971566;28;20133;-55
2022/12/15 14:29:13;;;;;;;66.45;24.80;;;;;;;;;;4977049;28;20085;-56
2022/12/15 14:31:39;;;;;;;65.20;24.33;;;;;;;;;;4975813;28;20120;-57
2022/12/15 14:34:05;;;;;;;73.38;25.73;;;;;;;;;;4973881;28;20065;-56
2022/12/15 14:36:30;;;;;;;81.18;27.38;;;;;;;;;;4973098;28;20027;-55
2022/12/15 14:38:57;;;;;;;75.93;24.50;;;;;;;;;;4971074;28;20030;-55
2022/12/15 14:41:49;;;;;;;69.20;24.42;;;;;;;;;;4956113;28;20030;-56
2022/12/15 14:44:15;;;;;;;80.70;28.75;;;;;;;;;;4975174;28;20033;-56
2022/12/15 14:46:44;;;;;;;80.78;26.70;;;;;;;;;;4970961;28;20081;-56
2022/12/15 14:49:12;;;;;;;71.18;26.27;;;;;;;;;;4954511;28;20447;-56
2022/12/15 14:51:39;;;;;;;75.30;25.95;;;;;;;;;;4963127;28;20038;-55
2022/12/15 14:54:04;;;;;;;77.93;26.25;;;;;;;;;;4971919;28;20030;-55
2022/12/15 14:56:29;;;;;;;73.35;26.58;;;;;;;;;;4960714;28;20380;-55
2022/12/15 14:58:58;;;;;;;74.95;25.10;;;;;;;;;;4975594;28;20185;-55
2022/12/15 15:01:28;;;;;;;74.72;25.63;;;;;;;;;;4974470;28;20415;-55
2022/12/15 15:04:00;;;;;;;92.50;31.20;;;;;;;;;;4972971;28;20069;-55
2022/12/15 15:06:30;;;;;;;82.35;27.13;;;;;;;;;;4967674;28;20057;-55
2022/12/15 15:08:55;;;;;;;80.40;28.13;;;;;;;;;;4970428;28;20043;-55
2022/12/15 15:11:28;;;;;;;89.88;32.33;;;;;;;;;;4945870;28;20455;-55
2022/12/15 15:13:58;;;;;;;91.43;29.65;;;;;;;;;;4974084;28;20022;-54
2022/12/15 15:16:23;;;;;;;90.88;29.80;;;;;;;;;;4979543;28;20476;-55
2022/12/15 15:18:49;;;;;;;72.30;25.50;;;;;;;;;;4955414;28;20502;-54
2022/12/15 15:21:15;;;;;;;81.65;26.52;;;;;;;;;;4959195;28;20038;-53
2022/12/15 15:23:41;;;;;;;77.75;24.83;;;;;;;;;;4973191;28;20039;-54
2022/12/15 15:26:09;;;;;;;78.90;27.80;;;;;;;;;;4977051;28;20423;-55
2022/12/15 15:28:35;;;;;;;84.80;27.95;;;;;;;;;;4976151;28;20019;-54
2022/12/15 15:31:06;;;;;;;76.60;25.92;;;;;;;;;;4976737;28;20052;-57
2022/12/15 15:33:32;;;;;;;82.32;25.13;;;;;;;;;;4975399;28;20019;-54
2022/12/15 15:35:58;;;;;;;73.50;26.50;;;;;;;;;;4972363;28;20089;-55
2022/12/15 15:38:33;;;;;;;67.75;24.42;;;;;;;;;;4971735;28;20026;-55
2022/12/15 15:40:59;;;;;;;76.10;25.67;;;;;;;;;;4981649;28;20571;-55
2022/12/15 15:43:24;;;;;;;80.30;25.60;;;;;;;;;;4973261;28;20063;-52
2022/12/15 15:45:53;;;;;;;71.97;28.27;;;;;;;;;;4972777;28;20038;-55
2022/12/15 15:48:22;;;;;;;79.03;26.25;;;;;;;;;;4976418;28;20086;-54
2022/12/15 15:50:48;;;;;;;81.72;27.30;;;;;;;;;;4962840;28;20386;-52
2022/12/15 15:53:18;;;;;;;79.30;26.88;;;;;;;;;;4981380;28;20080;-52
2022/12/15 15:55:43;;;;;;;88.72;26.70;;;;;;;;;;4972276;28;20043;-56
2022/12/15 15:58:09;;;;;;;76.50;26.13;;;;;;;;;;4980181;28;20216;-55
2022/12/15 16:00:34;;;;;;;78.43;26.88;;;;;;;;;;4979750;28;20037;-51
2022/12/15 16:03:00;;;;;;;85.95;26.88;;;;;;;;;;4978335;28;20022;-57
2022/12/15 16:05:25;;;;;;;75.18;23.30;;;;;;;;;;4974984;28;20027;-56
2022/12/15 16:07:50;;;;;;;82.18;25.98;;;;;;;;;;4976969;28;20034;-55
2022/12/15 16:10:16;;;;;;;68.75;22.13;;;;;;;;;;4962853;28;20019;-56
2022/12/15 16:12:43;;;;;;;66.47;22.10;;;;;;;;;;4979356;28;20504;-54
2022/12/15 16:15:32;;;;;;;83.63;23.85;;;;;;;;;;4954110;28;20117;-52
2022/12/15 16:17:58;;;;;;;70.70;24.98;;;;;;;;;;4979180;28;20026;-52
2022/12/15 16:20:24;;;;;;;66.60;22.85;;;;;;;;;;4962999;28;20050;-54
2022/12/15 16:22:54;;;;;;;67.68;22.08;;;;;;;;;;4976301;28;20019;-54
2022/12/15 16:25:22;;;;;;;76.13;27.33;;;;;;;;;;4973299;28;20053;-54
2022/12/15 16:27:48;;;;;;;69.10;23.02;;;;;;;;;;4965980;28;20038;-54
2022/12/15 16:30:14;;;;;;;67.70;22.08;;;;;;;;;;4979213;28;20026;-53
2022/12/15 16:32:39;;;;;;;68.30;22.77;;;;;;;;;;4984195;28;20104;-55
2022/12/15 16:35:06;;;;;;;73.10;22.05;;;;;;;;;;4974649;28;20101;-53
2022/12/15 16:37:32;;;;;;;68.53;22.38;;;;;;;;;;4979947;28;20030;-53
2022/12/15 16:39:57;;;;;;;69.22;23.20;;;;;;;;;;4956341;28;20062;-52
2022/12/15 16:42:22;;;;;;;69.75;22.65;;;;;;;;;;4978220;28;20038;-56
2022/12/15 16:44:47;;;;;;;66.05;23.85;;;;;;;;;;4958789;28;20031;-54
2022/12/15 16:47:13;;;;;;;77.22;25.15;;;;;;;;;;4973255;28;20034;-53
2022/12/15 16:49:38;;;;;;;68.18;23.98;;;;;;;;;;4977915;28;20027;-53